sensor_id;sensor_type;location;lat;lon;timestamp;P1;durP1;ratioP1;P2;durP2;ratioP2
25263;SDS011;13211;51.796;5.808;2023-08-31T00:04:41;9.75;;;3.50;;
25263;SDS011;13211;51.796;5.808;2023-08-31T00:07:09;8.18;;;4.35;;
25263;SDS011;13211;51.796;5.808;2023-08-31T00:09:37;7.43;;;4.70;;
25263;SDS011;13211;51.796;5.808;2023-08-31T00:12:05;9.18;;;3.97;;
25263;SDS011;13211;51.796;5.808;2023-08-31T00:14:34;10.55;;;5.40;;
25263;SDS011;13211;51.796;5.808;2023-08-31T00:17:04;9.40;;;5.72;;
25263;SDS011;13211;51.796;5.808;2023-08-31T00:19:32;11.07;;;5.75;;
25263;SDS011;13211;51.796;5.808;2023-08-31T00:22:00;10.02;;;5.82;;
25263;SDS011;13211;51.796;5.808;2023-08-31T00:24:28;12.70;;;6.60;;
25263;SDS011;13211;51.796;5.808;2023-08-31T00:26:56;11.63;;;6.90;;
25263;SDS011;13211;51.796;5.808;2023-08-31T00:29:24;10.95;;;6.63;;
25263;SDS011;13211;51.796;5.808;2023-08-31T00:31:51;11.88;;;6.53;;
25263;SDS011;13211;51.796;5.808;2023-08-31T00:34:19;14.10;;;7.20;;
25263;SDS011;13211;51.796;5.808;2023-08-31T00:36:47;12.68;;;6.85;;
25263;SDS011;13211;51.796;5.808;2023-08-31T00:39:15;16.42;;;7.80;;
25263;SDS011;13211;51.796;5.808;2023-08-31T00:41:47;14.35;;;7.75;;
25263;SDS011;13211;51.796;5.808;2023-08-31T00:44:16;14.82;;;8.70;;
25263;SDS011;13211;51.796;5.808;2023-08-31T00:46:47;14.82;;;8.52;;
25263;SDS011;13211;51.796;5.808;2023-08-31T00:49:15;14.50;;;8.48;;
25263;SDS011;13211;51.796;5.808;2023-08-31T00:51:45;16.65;;;8.80;;
25263;SDS011;13211;51.796;5.808;2023-08-31T00:54:16;13.80;;;8.48;;
25263;SDS011;13211;51.796;5.808;2023-08-31T00:56:55;14.02;;;8.45;;
25263;SDS011;13211;51.796;5.808;2023-08-31T00:59:24;14.40;;;8.95;;
25263;SDS011;13211;51.796;5.808;2023-08-31T01:02:16;21.02;;;9.63;;
25263;SDS011;13211;51.796;5.808;2023-08-31T01:04:47;18.10;;;10.55;;
25263;SDS011;13211;51.796;5.808;2023-08-31T01:07:21;19.23;;;11.18;;
25263;SDS011;13211;51.796;5.808;2023-08-31T01:13:01;15.73;;;11.13;;
25263;SDS011;13211;51.796;5.808;2023-08-31T01:15:30;28.85;;;12.63;;
25263;SDS011;13211;51.796;5.808;2023-08-31T01:18:02;20.90;;;13.40;;
25263;SDS011;13211;51.796;5.808;2023-08-31T01:20:32;21.05;;;13.38;;
25263;SDS011;13211;51.796;5.808;2023-08-31T01:23:02;23.73;;;14.02;;
25263;SDS011;13211;51.796;5.808;2023-08-31T01:25:31;23.65;;;14.40;;
25263;SDS011;13211;51.796;5.808;2023-08-31T01:28:00;26.85;;;14.73;;
25263;SDS011;13211;51.796;5.808;2023-08-31T01:30:31;23.15;;;14.25;;
25263;SDS011;13211;51.796;5.808;2023-08-31T01:32:59;24.70;;;15.10;;
25263;SDS011;13211;51.796;5.808;2023-08-31T01:35:28;30.05;;;15.43;;
25263;SDS011;13211;51.796;5.808;2023-08-31T01:37:59;24.25;;;14.57;;
25263;SDS011;13211;51.796;5.808;2023-08-31T01:41:15;24.50;;;15.20;;
25263;SDS011;13211;51.796;5.808;2023-08-31T01:43:17;23.75;;;15.48;;
25263;SDS011;13211;51.796;5.808;2023-08-31T01:45:45;29.48;;;17.02;;
25263;SDS011;13211;51.796;5.808;2023-08-31T01:48:14;25.13;;;16.08;;
25263;SDS011;13211;51.796;5.808;2023-08-31T01:50:42;29.65;;;15.95;;
25263;SDS011;13211;51.796;5.808;2023-08-31T01:53:12;30.80;;;16.23;;
25263;SDS011;13211;51.796;5.808;2023-08-31T01:55:40;25.90;;;15.73;;
25263;SDS011;13211;51.796;5.808;2023-08-31T01:58:09;31.10;;;15.55;;
25263;SDS011;13211;51.796;5.808;2023-08-31T02:00:36;27.77;;;17.33;;
25263;SDS011;13211;51.796;5.808;2023-08-31T02:03:05;29.33;;;17.60;;
25263;SDS011;13211;51.796;5.808;2023-08-31T02:05:34;28.15;;;16.90;;
25263;SDS011;13211;51.796;5.808;2023-08-31T02:08:07;27.27;;;17.10;;
25263;SDS011;13211;51.796;5.808;2023-08-31T02:10:35;29.23;;;17.58;;
25263;SDS011;13211;51.796;5.808;2023-08-31T02:13:03;27.02;;;17.65;;
25263;SDS011;13211;51.796;5.808;2023-08-31T02:15:31;30.10;;;17.30;;
25263;SDS011;13211;51.796;5.808;2023-08-31T02:17:59;30.27;;;16.55;;
25263;SDS011;13211;51.796;5.808;2023-08-31T02:20:27;31.08;;;16.70;;
25263;SDS011;13211;51.796;5.808;2023-08-31T02:22:54;24.83;;;16.55;;
25263;SDS011;13211;51.796;5.808;2023-08-31T02:25:22;29.02;;;16.48;;
25263;SDS011;13211;51.796;5.808;2023-08-31T02:27:50;27.33;;;16.60;;
25263;SDS011;13211;51.796;5.808;2023-08-31T02:30:18;24.45;;;16.00;;
25263;SDS011;13211;51.796;5.808;2023-08-31T02:32:46;28.85;;;15.88;;
25263;SDS011;13211;51.796;5.808;2023-08-31T02:35:14;28.83;;;17.13;;
25263;SDS011;13211;51.796;5.808;2023-08-31T02:37:42;26.40;;;16.08;;
25263;SDS011;13211;51.796;5.808;2023-08-31T02:40:09;25.13;;;16.17;;
25263;SDS011;13211;51.796;5.808;2023-08-31T02:42:37;27.27;;;16.02;;
25263;SDS011;13211;51.796;5.808;2023-08-31T02:45:06;26.45;;;15.00;;
25263;SDS011;13211;51.796;5.808;2023-08-31T02:47:34;28.50;;;14.80;;
25263;SDS011;13211;51.796;5.808;2023-08-31T02:50:01;25.15;;;14.82;;
25263;SDS011;13211;51.796;5.808;2023-08-31T02:52:29;28.60;;;14.88;;
25263;SDS011;13211;51.796;5.808;2023-08-31T02:54:58;29.45;;;15.57;;
25263;SDS011;13211;51.796;5.808;2023-08-31T02:57:26;26.13;;;15.50;;
25263;SDS011;13211;51.796;5.808;2023-08-31T02:59:54;23.10;;;14.60;;
25263;SDS011;13211;51.796;5.808;2023-08-31T03:02:22;24.30;;;14.73;;
25263;SDS011;13211;51.796;5.808;2023-08-31T03:04:50;25.27;;;15.48;;
25263;SDS011;13211;51.796;5.808;2023-08-31T03:07:19;22.13;;;14.95;;
25263;SDS011;13211;51.796;5.808;2023-08-31T03:09:50;25.40;;;16.05;;
25263;SDS011;13211;51.796;5.808;2023-08-31T03:12:18;25.27;;;15.18;;
25263;SDS011;13211;51.796;5.808;2023-08-31T03:14:48;24.60;;;14.80;;
25263;SDS011;13211;51.796;5.808;2023-08-31T03:17:17;24.85;;;14.32;;
25263;SDS011;13211;51.796;5.808;2023-08-31T03:19:45;26.50;;;15.43;;
25263;SDS011;13211;51.796;5.808;2023-08-31T03:22:17;25.77;;;15.82;;
25263;SDS011;13211;51.796;5.808;2023-08-31T03:24:44;28.88;;;15.32;;
25263;SDS011;13211;51.796;5.808;2023-08-31T03:27:12;29.92;;;16.00;;
25263;SDS011;13211;51.796;5.808;2023-08-31T03:29:40;27.35;;;15.57;;
25263;SDS011;13211;51.796;5.808;2023-08-31T03:32:08;23.80;;;14.98;;
25263;SDS011;13211;51.796;5.808;2023-08-31T03:34:36;34.63;;;16.75;;
25263;SDS011;13211;51.796;5.808;2023-08-31T03:37:04;28.38;;;15.55;;
25263;SDS011;13211;51.796;5.808;2023-08-31T03:39:33;26.95;;;15.77;;
25263;SDS011;13211;51.796;5.808;2023-08-31T03:42:01;25.05;;;16.10;;
25263;SDS011;13211;51.796;5.808;2023-08-31T03:44:29;29.08;;;16.33;;
25263;SDS011;13211;51.796;5.808;2023-08-31T03:46:57;39.80;;;17.05;;
25263;SDS011;13211;51.796;5.808;2023-08-31T03:49:25;23.25;;;15.10;;
25263;SDS011;13211;51.796;5.808;2023-08-31T03:51:53;24.83;;;15.38;;
25263;SDS011;13211;51.796;5.808;2023-08-31T03:54:21;25.88;;;15.55;;
25263;SDS011;13211;51.796;5.808;2023-08-31T03:56:48;35.55;;;15.52;;
25263;SDS011;13211;51.796;5.808;2023-08-31T03:59:17;28.42;;;15.98;;
25263;SDS011;13211;51.796;5.808;2023-08-31T04:01:45;27.08;;;15.98;;
25263;SDS011;13211;51.796;5.808;2023-08-31T04:04:13;24.08;;;15.38;;
25263;SDS011;13211;51.796;5.808;2023-08-31T04:06:41;31.08;;;16.65;;
25263;SDS011;13211;51.796;5.808;2023-08-31T04:09:08;29.02;;;16.45;;
25263;SDS011;13211;51.796;5.808;2023-08-31T04:11:36;32.95;;;17.45;;
25263;SDS011;13211;51.796;5.808;2023-08-31T04:14:04;26.40;;;16.48;;
25263;SDS011;13211;51.796;5.808;2023-08-31T04:16:34;26.17;;;17.05;;
25263;SDS011;13211;51.796;5.808;2023-08-31T04:19:02;27.00;;;18.17;;
25263;SDS011;13211;51.796;5.808;2023-08-31T04:21:30;34.40;;;18.83;;
25263;SDS011;13211;51.796;5.808;2023-08-31T04:24:03;34.50;;;19.35;;
25263;SDS011;13211;51.796;5.808;2023-08-31T04:26:34;31.48;;;18.60;;
25263;SDS011;13211;51.796;5.808;2023-08-31T04:29:02;27.80;;;18.13;;
25263;SDS011;13211;51.796;5.808;2023-08-31T04:31:32;30.00;;;18.35;;
25263;SDS011;13211;51.796;5.808;2023-08-31T04:34:00;30.65;;;20.60;;
25263;SDS011;13211;51.796;5.808;2023-08-31T04:36:27;32.42;;;21.05;;
25263;SDS011;13211;51.796;5.808;2023-08-31T04:38:55;31.92;;;19.77;;
25263;SDS011;13211;51.796;5.808;2023-08-31T04:41:23;33.78;;;19.95;;
25263;SDS011;13211;51.796;5.808;2023-08-31T04:43:51;30.70;;;20.42;;
25263;SDS011;13211;51.796;5.808;2023-08-31T04:46:20;36.90;;;21.88;;
25263;SDS011;13211;51.796;5.808;2023-08-31T04:48:48;36.08;;;22.17;;
25263;SDS011;13211;51.796;5.808;2023-08-31T04:51:31;37.33;;;22.05;;
25263;SDS011;13211;51.796;5.808;2023-08-31T04:54:00;38.55;;;22.55;;
25263;SDS011;13211;51.796;5.808;2023-08-31T04:56:32;34.90;;;22.13;;
25263;SDS011;13211;51.796;5.808;2023-08-31T05:01:33;35.75;;;22.15;;
25263;SDS011;13211;51.796;5.808;2023-08-31T05:04:02;35.05;;;22.15;;
25263;SDS011;13211;51.796;5.808;2023-08-31T05:06:33;38.83;;;22.95;;
25263;SDS011;13211;51.796;5.808;2023-08-31T05:09:02;34.97;;;23.25;;
25263;SDS011;13211;51.796;5.808;2023-08-31T05:11:30;39.97;;;23.85;;
25263;SDS011;13211;51.796;5.808;2023-08-31T05:13:58;42.28;;;26.10;;
25263;SDS011;13211;51.796;5.808;2023-08-31T05:16:25;38.80;;;24.58;;
25263;SDS011;13211;51.796;5.808;2023-08-31T05:18:53;41.78;;;24.75;;
25263;SDS011;13211;51.796;5.808;2023-08-31T05:21:21;45.28;;;25.27;;
25263;SDS011;13211;51.796;5.808;2023-08-31T05:23:49;40.35;;;25.25;;
25263;SDS011;13211;51.796;5.808;2023-08-31T05:26:17;49.70;;;26.90;;
25263;SDS011;13211;51.796;5.808;2023-08-31T05:28:45;48.70;;;27.50;;
25263;SDS011;13211;51.796;5.808;2023-08-31T05:31:13;48.45;;;26.08;;
25263;SDS011;13211;51.796;5.808;2023-08-31T05:33:41;44.50;;;27.35;;
25263;SDS011;13211;51.796;5.808;2023-08-31T05:36:08;51.60;;;26.90;;
25263;SDS011;13211;51.796;5.808;2023-08-31T05:38:36;46.65;;;26.65;;
25263;SDS011;13211;51.796;5.808;2023-08-31T05:41:05;44.92;;;27.83;;
25263;SDS011;13211;51.796;5.808;2023-08-31T05:43:35;46.25;;;27.55;;
25263;SDS011;13211;51.796;5.808;2023-08-31T05:46:07;46.58;;;26.67;;
25263;SDS011;13211;51.796;5.808;2023-08-31T05:48:37;43.92;;;25.77;;
25263;SDS011;13211;51.796;5.808;2023-08-31T05:51:05;41.38;;;26.10;;
25263;SDS011;13211;51.796;5.808;2023-08-31T05:53:33;43.80;;;25.25;;
25263;SDS011;13211;51.796;5.808;2023-08-31T05:56:03;39.53;;;24.42;;
25263;SDS011;13211;51.796;5.808;2023-08-31T05:58:31;43.53;;;24.73;;
25263;SDS011;13211;51.796;5.808;2023-08-31T06:01:00;41.33;;;24.15;;
25263;SDS011;13211;51.796;5.808;2023-08-31T06:03:29;45.85;;;24.48;;
25263;SDS011;13211;51.796;5.808;2023-08-31T06:05:57;41.13;;;23.48;;
25263;SDS011;13211;51.796;5.808;2023-08-31T06:08:26;41.10;;;22.88;;
25263;SDS011;13211;51.796;5.808;2023-08-31T06:10:56;35.58;;;22.48;;
25263;SDS011;13211;51.796;5.808;2023-08-31T06:13:24;38.13;;;22.50;;
25263;SDS011;13211;51.796;5.808;2023-08-31T06:15:52;41.90;;;22.88;;
25263;SDS011;13211;51.796;5.808;2023-08-31T06:18:19;35.47;;;20.70;;
25263;SDS011;13211;51.796;5.808;2023-08-31T06:20:48;33.13;;;20.13;;
25263;SDS011;13211;51.796;5.808;2023-08-31T06:23:16;32.08;;;19.67;;
25263;SDS011;13211;51.796;5.808;2023-08-31T06:25:44;30.17;;;19.00;;
25263;SDS011;13211;51.796;5.808;2023-08-31T06:28:12;33.10;;;17.90;;
25263;SDS011;13211;51.796;5.808;2023-08-31T06:30:41;31.38;;;19.63;;
25263;SDS011;13211;51.796;5.808;2023-08-31T06:33:13;35.33;;;18.17;;
25263;SDS011;13211;51.796;5.808;2023-08-31T06:35:42;32.97;;;17.75;;
25263;SDS011;13211;51.796;5.808;2023-08-31T06:38:10;25.45;;;17.42;;
25263;SDS011;13211;51.796;5.808;2023-08-31T06:40:38;31.83;;;16.98;;
25263;SDS011;13211;51.796;5.808;2023-08-31T06:43:06;27.52;;;16.30;;
25263;SDS011;13211;51.796;5.808;2023-08-31T06:45:33;27.23;;;16.75;;
25263;SDS011;13211;51.796;5.808;2023-08-31T06:48:11;24.88;;;15.52;;
25263;SDS011;13211;51.796;5.808;2023-08-31T06:50:39;24.58;;;15.90;;
25263;SDS011;13211;51.796;5.808;2023-08-31T06:53:07;23.70;;;14.32;;
25263;SDS011;13211;51.796;5.808;2023-08-31T06:55:35;20.13;;;13.65;;
25263;SDS011;13211;51.796;5.808;2023-08-31T06:58:04;21.80;;;13.98;;
25263;SDS011;13211;51.796;5.808;2023-08-31T07:00:33;27.55;;;14.23;;
25263;SDS011;13211;51.796;5.808;2023-08-31T07:03:01;23.02;;;14.40;;
25263;SDS011;13211;51.796;5.808;2023-08-31T07:05:32;21.45;;;14.38;;
25263;SDS011;13211;51.796;5.808;2023-08-31T07:08:02;24.83;;;12.80;;
25263;SDS011;13211;51.796;5.808;2023-08-31T07:10:30;27.30;;;12.70;;
25263;SDS011;13211;51.796;5.808;2023-08-31T07:13:03;30.13;;;12.75;;
25263;SDS011;13211;51.796;5.808;2023-08-31T07:15:31;19.50;;;12.80;;
25263;SDS011;13211;51.796;5.808;2023-08-31T07:17:59;21.27;;;12.50;;
25263;SDS011;13211;51.796;5.808;2023-08-31T07:20:26;16.98;;;11.18;;
25263;SDS011;13211;51.796;5.808;2023-08-31T07:22:55;22.98;;;11.52;;
25263;SDS011;13211;51.796;5.808;2023-08-31T07:25:23;19.80;;;10.88;;
25263;SDS011;13211;51.796;5.808;2023-08-31T07:27:51;20.40;;;10.90;;
25263;SDS011;13211;51.796;5.808;2023-08-31T07:30:19;16.77;;;10.23;;
25263;SDS011;13211;51.796;5.808;2023-08-31T07:32:48;15.75;;;9.82;;
25263;SDS011;13211;51.796;5.808;2023-08-31T07:35:18;17.30;;;9.98;;
25263;SDS011;13211;51.796;5.808;2023-08-31T07:37:46;15.68;;;9.57;;
25263;SDS011;13211;51.796;5.808;2023-08-31T07:40:14;14.80;;;9.90;;
25263;SDS011;13211;51.796;5.808;2023-08-31T07:42:42;18.98;;;10.15;;
25263;SDS011;13211;51.796;5.808;2023-08-31T07:45:10;19.55;;;10.23;;
25263;SDS011;13211;51.796;5.808;2023-08-31T07:47:38;15.60;;;9.43;;
25263;SDS011;13211;51.796;5.808;2023-08-31T07:50:07;17.95;;;9.63;;
25263;SDS011;13211;51.796;5.808;2023-08-31T07:52:36;15.50;;;9.52;;
25263;SDS011;13211;51.796;5.808;2023-08-31T07:55:07;18.50;;;8.70;;
25263;SDS011;13211;51.796;5.808;2023-08-31T07:57:35;24.90;;;9.43;;
25263;SDS011;13211;51.796;5.808;2023-08-31T08:00:03;19.60;;;9.98;;
25263;SDS011;13211;51.796;5.808;2023-08-31T08:02:37;16.23;;;9.30;;
25263;SDS011;13211;51.796;5.808;2023-08-31T08:05:06;15.55;;;9.30;;
25263;SDS011;13211;51.796;5.808;2023-08-31T08:07:36;19.92;;;9.52;;
25263;SDS011;13211;51.796;5.808;2023-08-31T08:10:04;19.67;;;9.90;;
25263;SDS011;13211;51.796;5.808;2023-08-31T08:12:39;16.67;;;9.00;;
25263;SDS011;13211;51.796;5.808;2023-08-31T08:15:06;18.45;;;9.55;;
25263;SDS011;13211;51.796;5.808;2023-08-31T08:17:35;15.93;;;8.90;;
25263;SDS011;13211;51.796;5.808;2023-08-31T08:20:05;16.90;;;9.13;;
25263;SDS011;13211;51.796;5.808;2023-08-31T08:22:35;17.33;;;9.07;;
25263;SDS011;13211;51.796;5.808;2023-08-31T08:25:03;11.05;;;7.25;;
25263;SDS011;13211;51.796;5.808;2023-08-31T08:27:40;14.77;;;8.18;;
25263;SDS011;13211;51.796;5.808;2023-08-31T08:30:08;15.48;;;7.35;;
25263;SDS011;13211;51.796;5.808;2023-08-31T08:32:36;10.93;;;6.35;;
25263;SDS011;13211;51.796;5.808;2023-08-31T08:35:04;13.63;;;5.22;;
25263;SDS011;13211;51.796;5.808;2023-08-31T08:37:32;17.02;;;6.18;;
25263;SDS011;13211;51.796;5.808;2023-08-31T08:40:00;11.75;;;6.22;;
25263;SDS011;13211;51.796;5.808;2023-08-31T08:42:29;13.45;;;5.82;;
25263;SDS011;13211;51.796;5.808;2023-08-31T08:44:58;13.30;;;5.32;;
25263;SDS011;13211;51.796;5.808;2023-08-31T08:49:58;11.60;;;4.78;;
25263;SDS011;13211;51.796;5.808;2023-08-31T08:52:26;13.30;;;5.10;;
25263;SDS011;13211;51.796;5.808;2023-08-31T08:54:54;12.52;;;4.57;;
25263;SDS011;13211;51.796;5.808;2023-08-31T08:57:21;12.18;;;4.68;;
25263;SDS011;13211;51.796;5.808;2023-08-31T08:59:50;5.88;;;3.50;;
25263;SDS011;13211;51.796;5.808;2023-08-31T09:02:18;8.15;;;3.78;;
25263;SDS011;13211;51.796;5.808;2023-08-31T09:04:49;7.38;;;3.53;;
25263;SDS011;13211;51.796;5.808;2023-08-31T09:07:21;9.82;;;3.35;;
25263;SDS011;13211;51.796;5.808;2023-08-31T09:09:51;7.22;;;3.20;;
25263;SDS011;13211;51.796;5.808;2023-08-31T09:12:21;11.82;;;3.58;;
25263;SDS011;13211;51.796;5.808;2023-08-31T09:14:56;7.68;;;3.55;;
25263;SDS011;13211;51.796;5.808;2023-08-31T09:17:25;8.98;;;3.80;;
25263;SDS011;13211;51.796;5.808;2023-08-31T09:19:59;7.90;;;2.97;;
25263;SDS011;13211;51.796;5.808;2023-08-31T09:22:27;7.97;;;3.20;;
25263;SDS011;13211;51.796;5.808;2023-08-31T09:25:01;9.52;;;3.13;;
25263;SDS011;13211;51.796;5.808;2023-08-31T09:27:31;8.88;;;3.53;;
25263;SDS011;13211;51.796;5.808;2023-08-31T09:30:05;10.00;;;3.05;;
25263;SDS011;13211;51.796;5.808;2023-08-31T09:32:34;6.93;;;2.35;;
25263;SDS011;13211;51.796;5.808;2023-08-31T09:35:02;8.15;;;2.25;;
25263;SDS011;13211;51.796;5.808;2023-08-31T09:37:49;5.25;;;1.92;;
25263;SDS011;13211;51.796;5.808;2023-08-31T09:40:22;5.82;;;1.73;;
25263;SDS011;13211;51.796;5.808;2023-08-31T09:42:51;6.53;;;1.83;;
25263;SDS011;13211;51.796;5.808;2023-08-31T09:45:30;7.45;;;2.33;;
25263;SDS011;13211;51.796;5.808;2023-08-31T09:48:04;7.45;;;2.22;;
25263;SDS011;13211;51.796;5.808;2023-08-31T09:50:33;8.77;;;2.22;;
25263;SDS011;13211;51.796;5.808;2023-08-31T09:53:02;8.48;;;2.30;;
25263;SDS011;13211;51.796;5.808;2023-08-31T09:55:33;7.13;;;2.00;;
25263;SDS011;13211;51.796;5.808;2023-08-31T09:58:03;6.72;;;2.00;;
25263;SDS011;13211;51.796;5.808;2023-08-31T10:00:41;5.20;;;2.20;;
25263;SDS011;13211;51.796;5.808;2023-08-31T10:03:10;6.72;;;2.20;;
25263;SDS011;13211;51.796;5.808;2023-08-31T10:05:46;9.40;;;2.05;;
25263;SDS011;13211;51.796;5.808;2023-08-31T10:08:14;4.95;;;1.50;;
25263;SDS011;13211;51.796;5.808;2023-08-31T10:10:42;6.93;;;2.30;;
25263;SDS011;13211;51.796;5.808;2023-08-31T10:13:10;9.00;;;2.17;;
25263;SDS011;13211;51.796;5.808;2023-08-31T10:15:38;5.38;;;1.80;;
25263;SDS011;13211;51.796;5.808;2023-08-31T10:18:06;8.63;;;1.60;;
25263;SDS011;13211;51.796;5.808;2023-08-31T10:20:34;6.65;;;1.80;;
25263;SDS011;13211;51.796;5.808;2023-08-31T10:23:04;10.65;;;1.98;;
25263;SDS011;13211;51.796;5.808;2023-08-31T10:28:19;5.05;;;1.60;;
25263;SDS011;13211;51.796;5.808;2023-08-31T10:36:13;6.43;;;1.75;;
25263;SDS011;13211;51.796;5.808;2023-08-31T10:38:42;4.43;;;1.63;;
25263;SDS011;13211;51.796;5.808;2023-08-31T10:43:48;6.72;;;1.88;;
25263;SDS011;13211;51.796;5.808;2023-08-31T10:46:35;4.45;;;1.90;;
25263;SDS011;13211;51.796;5.808;2023-08-31T10:51:41;9.68;;;2.30;;
25263;SDS011;13211;51.796;5.808;2023-08-31T10:54:13;10.85;;;2.17;;
25263;SDS011;13211;51.796;5.808;2023-08-31T10:59:25;7.18;;;2.50;;
25263;SDS011;13211;51.796;5.808;2023-08-31T11:01:59;4.60;;;2.00;;
25263;SDS011;13211;51.796;5.808;2023-08-31T11:04:54;7.28;;;2.30;;
25263;SDS011;13211;51.796;5.808;2023-08-31T11:07:23;9.35;;;2.25;;
25263;SDS011;13211;51.796;5.808;2023-08-31T11:09:51;4.95;;;2.17;;
25263;SDS011;13211;51.796;5.808;2023-08-31T11:12:22;5.63;;;2.35;;
25263;SDS011;13211;51.796;5.808;2023-08-31T11:14:50;8.57;;;1.88;;
25263;SDS011;13211;51.796;5.808;2023-08-31T11:17:18;4.50;;;1.98;;
25263;SDS011;13211;51.796;5.808;2023-08-31T11:19:46;7.55;;;2.38;;
25263;SDS011;13211;51.796;5.808;2023-08-31T11:22:13;19.20;;;3.38;;
25263;SDS011;13211;51.796;5.808;2023-08-31T11:24:42;17.23;;;3.15;;
25263;SDS011;13211;51.796;5.808;2023-08-31T11:27:10;10.65;;;2.92;;
25263;SDS011;13211;51.796;5.808;2023-08-31T11:29:47;7.82;;;2.60;;
25263;SDS011;13211;51.796;5.808;2023-08-31T11:32:54;6.28;;;2.10;;
25263;SDS011;13211;51.796;5.808;2023-08-31T11:35:36;7.60;;;2.30;;
25263;SDS011;13211;51.796;5.808;2023-08-31T11:38:49;5.28;;;2.35;;
25263;SDS011;13211;51.796;5.808;2023-08-31T11:41:33;5.38;;;2.63;;
25263;SDS011;13211;51.796;5.808;2023-08-31T11:44:18;4.78;;;2.30;;
25263;SDS011;13211;51.796;5.808;2023-08-31T11:46:50;6.22;;;2.25;;
25263;SDS011;13211;51.796;5.808;2023-08-31T11:49:23;8.25;;;2.70;;
25263;SDS011;13211;51.796;5.808;2023-08-31T11:51:57;8.05;;;2.90;;
25263;SDS011;13211;51.796;5.808;2023-08-31T11:54:26;7.25;;;3.60;;
25263;SDS011;13211;51.796;5.808;2023-08-31T11:56:54;8.40;;;3.22;;
25263;SDS011;13211;51.796;5.808;2023-08-31T11:59:21;6.47;;;3.42;;
25263;SDS011;13211;51.796;5.808;2023-08-31T12:01:50;6.60;;;3.22;;
25263;SDS011;13211;51.796;5.808;2023-08-31T12:04:21;6.25;;;3.20;;
25263;SDS011;13211;51.796;5.808;2023-08-31T12:06:51;9.40;;;3.42;;
25263;SDS011;13211;51.796;5.808;2023-08-31T12:09:20;5.88;;;2.95;;
25263;SDS011;13211;51.796;5.808;2023-08-31T12:11:51;9.10;;;3.25;;
25263;SDS011;13211;51.796;5.808;2023-08-31T12:14:25;10.32;;;3.50;;
25263;SDS011;13211;51.796;5.808;2023-08-31T12:17:01;7.22;;;3.00;;
25263;SDS011;13211;51.796;5.808;2023-08-31T12:19:30;6.82;;;3.55;;
25263;SDS011;13211;51.796;5.808;2023-08-31T12:22:03;9.10;;;3.50;;
25263;SDS011;13211;51.796;5.808;2023-08-31T12:24:38;5.50;;;3.20;;
25263;SDS011;13211;51.796;5.808;2023-08-31T12:27:09;8.10;;;3.20;;
25263;SDS011;13211;51.796;5.808;2023-08-31T12:29:37;6.63;;;3.47;;
25263;SDS011;13211;51.796;5.808;2023-08-31T12:32:07;6.47;;;3.30;;
25263;SDS011;13211;51.796;5.808;2023-08-31T12:34:34;10.30;;;3.70;;
25263;SDS011;13211;51.796;5.808;2023-08-31T12:37:03;11.05;;;3.67;;
25263;SDS011;13211;51.796;5.808;2023-08-31T12:39:31;9.50;;;3.30;;
25263;SDS011;13211;51.796;5.808;2023-08-31T12:41:59;11.43;;;3.40;;
25263;SDS011;13211;51.796;5.808;2023-08-31T12:44:42;7.07;;;3.47;;
25263;SDS011;13211;51.796;5.808;2023-08-31T12:47:09;9.32;;;3.55;;
25263;SDS011;13211;51.796;5.808;2023-08-31T12:49:39;6.70;;;3.13;;
25263;SDS011;13211;51.796;5.808;2023-08-31T12:52:06;8.63;;;3.25;;
25263;SDS011;13211;51.796;5.808;2023-08-31T12:54:34;10.10;;;3.40;;
25263;SDS011;13211;51.796;5.808;2023-08-31T12:57:02;8.93;;;3.10;;
25263;SDS011;13211;51.796;5.808;2023-08-31T12:59:32;7.13;;;3.42;;
25263;SDS011;13211;51.796;5.808;2023-08-31T13:02:00;8.23;;;3.30;;
25263;SDS011;13211;51.796;5.808;2023-08-31T13:04:30;8.55;;;2.97;;
25263;SDS011;13211;51.796;5.808;2023-08-31T13:06:57;8.40;;;2.70;;
25263;SDS011;13211;51.796;5.808;2023-08-31T13:09:25;7.20;;;2.40;;
25263;SDS011;13211;51.796;5.808;2023-08-31T13:11:54;9.55;;;2.80;;
25263;SDS011;13211;51.796;5.808;2023-08-31T13:14:22;5.78;;;2.30;;
25263;SDS011;13211;51.796;5.808;2023-08-31T13:16:49;5.95;;;2.55;;
25263;SDS011;13211;51.796;5.808;2023-08-31T13:19:17;6.45;;;2.28;;
25263;SDS011;13211;51.796;5.808;2023-08-31T13:21:44;4.65;;;2.10;;
25263;SDS011;13211;51.796;5.808;2023-08-31T13:24:12;7.35;;;2.40;;
25263;SDS011;13211;51.796;5.808;2023-08-31T13:26:40;4.40;;;2.13;;
25263;SDS011;13211;51.796;5.808;2023-08-31T13:29:14;6.82;;;2.42;;
25263;SDS011;13211;51.796;5.808;2023-08-31T13:31:42;6.15;;;2.10;;
25263;SDS011;13211;51.796;5.808;2023-08-31T13:34:10;7.80;;;2.97;;
25263;SDS011;13211;51.796;5.808;2023-08-31T13:36:38;5.38;;;2.30;;
25263;SDS011;13211;51.796;5.808;2023-08-31T13:39:07;6.55;;;2.50;;
25263;SDS011;13211;51.796;5.808;2023-08-31T13:41:36;6.00;;;2.50;;
25263;SDS011;13211;51.796;5.808;2023-08-31T13:44:04;6.00;;;2.67;;
25263;SDS011;13211;51.796;5.808;2023-08-31T13:46:31;4.05;;;2.30;;
25263;SDS011;13211;51.796;5.808;2023-08-31T13:48:59;7.78;;;2.75;;
25263;SDS011;13211;51.796;5.808;2023-08-31T13:51:28;6.78;;;2.67;;
25263;SDS011;13211;51.796;5.808;2023-08-31T13:53:56;9.32;;;2.67;;
25263;SDS011;13211;51.796;5.808;2023-08-31T13:56:23;10.63;;;2.65;;
25263;SDS011;13211;51.796;5.808;2023-08-31T13:58:51;8.13;;;2.83;;
25263;SDS011;13211;51.796;5.808;2023-08-31T14:01:19;6.40;;;2.75;;
25263;SDS011;13211;51.796;5.808;2023-08-31T14:03:47;10.57;;;2.90;;
25263;SDS011;13211;51.796;5.808;2023-08-31T14:06:14;9.18;;;3.15;;
25263;SDS011;13211;51.796;5.808;2023-08-31T14:08:44;7.47;;;2.90;;
25263;SDS011;13211;51.796;5.808;2023-08-31T14:11:13;6.72;;;3.28;;
25263;SDS011;13211;51.796;5.808;2023-08-31T14:13:43;10.75;;;3.10;;
25263;SDS011;13211;51.796;5.808;2023-08-31T14:16:13;9.18;;;2.72;;
25263;SDS011;13211;51.796;5.808;2023-08-31T14:18:40;11.52;;;3.40;;
25263;SDS011;13211;51.796;5.808;2023-08-31T14:21:14;5.88;;;2.90;;
25263;SDS011;13211;51.796;5.808;2023-08-31T14:23:44;6.38;;;2.90;;
25263;SDS011;13211;51.796;5.808;2023-08-31T14:26:16;5.57;;;2.92;;
25263;SDS011;13211;51.796;5.808;2023-08-31T14:28:43;11.60;;;3.10;;
25263;SDS011;13211;51.796;5.808;2023-08-31T14:31:21;7.35;;;2.90;;
25263;SDS011;13211;51.796;5.808;2023-08-31T14:33:49;9.43;;;3.08;;
25263;SDS011;13211;51.796;5.808;2023-08-31T14:36:18;9.97;;;2.90;;
25263;SDS011;13211;51.796;5.808;2023-08-31T14:38:46;8.68;;;2.47;;
25263;SDS011;13211;51.796;5.808;2023-08-31T14:41:15;7.53;;;3.00;;
25263;SDS011;13211;51.796;5.808;2023-08-31T14:43:42;9.35;;;2.50;;
25263;SDS011;13211;51.796;5.808;2023-08-31T14:46:10;12.60;;;2.50;;
25263;SDS011;13211;51.796;5.808;2023-08-31T14:48:38;10.77;;;3.00;;
25263;SDS011;13211;51.796;5.808;2023-08-31T14:51:06;8.07;;;2.90;;
25263;SDS011;13211;51.796;5.808;2023-08-31T14:53:35;7.50;;;3.17;;
25263;SDS011;13211;51.796;5.808;2023-08-31T14:56:03;11.25;;;3.00;;
25263;SDS011;13211;51.796;5.808;2023-08-31T14:58:38;10.38;;;2.53;;
25263;SDS011;13211;51.796;5.808;2023-08-31T15:01:07;7.18;;;2.30;;
25263;SDS011;13211;51.796;5.808;2023-08-31T15:03:36;7.43;;;2.50;;
25263;SDS011;13211;51.796;5.808;2023-08-31T15:06:04;8.95;;;2.83;;
25263;SDS011;13211;51.796;5.808;2023-08-31T15:08:38;6.45;;;2.25;;
25263;SDS011;13211;51.796;5.808;2023-08-31T15:11:16;7.75;;;2.55;;
25263;SDS011;13211;51.796;5.808;2023-08-31T15:13:44;10.60;;;3.25;;
25263;SDS011;13211;51.796;5.808;2023-08-31T15:16:11;7.18;;;2.80;;